This is the latest recevied weather packets stored in our database for station/object SR6WXJG. If no packets are shown the sender has not sent any weather packets the latest 10 day(s).
| Time | Temp. | Humidity | Pressure | Rain* | Wind** | Luminosity | Snow |
|---|---|---|---|---|---|---|---|
| 1777732444 | 24.44° C | 31% | 1020 hPa | 0 mm | - | - | - |
| 1777731544 | 24.44° C | 26% | 1021 hPa | 0 mm | - | - | - |
| 1777730643 | 24.44° C | 26% | 1022 hPa | 0 mm | - | - | - |
| 1777729743 | 23.89° C | 30% | 1021 hPa | 0 mm | - | - | - |
| 1777728843 | 23.89° C | 30% | 1021 hPa | 0 mm | - | - | - |
| 1777727942 | 24.44° C | 27% | 1022 hPa | 0 mm | - | - | - |
| 1777727042 | 23.33° C | 31% | 1022 hPa | 0 mm | - | - | - |
| 1777726142 | 23.33° C | 31% | 1022 hPa | 0 mm | - | - | - |
| 1777725241 | 23.33° C | 31% | 1022 hPa | 0 mm | - | - | - |
| 1777724341 | 23.33° C | 28% | 1023 hPa | 0 mm | - | - | - |
| 1777723441 | 23.33° C | 32% | 1023 hPa | 0 mm | - | - | - |
| 1777722540 | 23.33° C | 32% | 1023 hPa | 0 mm | - | - | - |
| 1777721640 | 22.78° C | 33% | 1023 hPa | 0 mm | - | - | - |
| 1777720740 | 22.78° C | 31% | 1024 hPa | 0 mm | - | - | - |
| 1777719839 | 22.22° C | 34% | 1023 hPa | 0 mm | - | - | - |
| 1777718939 | 22.22° C | 34% | 1023 hPa | 0 mm | - | - | - |
| 1777718038 | 22.22° C | 35% | 1023 hPa | 0 mm | - | - | - |
| 1777717138 | 21.67° C | 34% | 1024 hPa | 0 mm | - | - | - |
| 1777716238 | 21.11° C | 38% | 1024 hPa | 0 mm | - | - | - |
| 1777715337 | 21.11° C | 38% | 1024 hPa | 0 mm | - | - | - |
| 1777714437 | 21.11° C | 39% | 1024 hPa | 0 mm | - | - | - |
| 1777713537 | 20° C | 40% | 1025 hPa | 0 mm | - | - | - |
| 1777712636 | 20° C | 40% | 1025 hPa | 0 mm | - | - | - |
| 1777711736 | 20° C | 44% | 1024 hPa | 0 mm | - | - | - |
| 1777710836 | 19.44° C | 46% | 1025 hPa | 0 mm | - | - | - |
* Rain latest hour (hover to see other rain measurements)
** Current wind speed in m/s (hover to see current wind gust speed)